LESO/EAS METAR and TAF weather

Enter ICAO airport designator
Station Type Date Time Source
LESO METAR 2022/07/03 15:00 UTC NOAA

LESO 031500Z 35004KT 300V060 9999 SCT022 OVC038 21/15 Q1021


Station Type Date Time Source
LESO Decoded METAR 2022/07/03 15:00 UTC NOAA

San Sebastian / Fuenterrabia, Spain (LESO) 43-21N 001-48W 8M
Jul 03, 2022 - 11:00 AM EDT / 2022.07.03 1500 UTC
Wind: from the N (350 degrees) at 5 MPH (4 KT) (direction variable):0
Visibility: greater than 7 mile(s):0
Sky conditions: overcast
Temperature: 69 F (21 C)
Dew Point: 59 F (15 C)
Relative Humidity: 68%
Pressure (altimeter): 30.15 in. Hg (1021 hPa)
ob: LESO 031500Z 35004KT 300V060 9999 SCT022 OVC038 21/15 Q1021
cycle: 15

Station Type Date Time Source
LESO TAF 2022/07/03 12:31 UTC NOAA

TAF LESO 031100Z 0312/0412 35006KT 9999 BKN020 TX22/0313Z TN18/0406Z PROB40
TEMPO 0315/0322 28015G27KT 3000 TSRA SCT040CB

Example: see airport list